createdAt,value
2019-05-30T00:00:36.827Z,0.00
2019-05-30T00:01:36.821Z,0.00
2019-05-30T00:02:36.825Z,0.00
2019-05-30T00:03:36.881Z,0.00
2019-05-30T00:04:36.811Z,0.00
2019-05-30T00:05:36.773Z,0.00
2019-05-30T00:06:36.772Z,0.00
2019-05-30T00:07:36.761Z,0.00
2019-05-30T00:08:36.744Z,0.00
2019-05-30T00:09:36.747Z,0.00
2019-05-30T00:10:36.733Z,0.00
2019-05-30T00:11:36.723Z,0.00
2019-05-30T00:12:36.700Z,0.00
2019-05-30T00:13:36.700Z,0.00
2019-05-30T00:14:36.679Z,0.00
2019-05-30T00:15:36.680Z,0.00
2019-05-30T00:16:36.679Z,0.00
2019-05-30T00:17:36.649Z,0.00
2019-05-30T00:18:36.638Z,0.00
2019-05-30T00:19:37.050Z,0.00
2019-05-30T00:20:36.632Z,0.00
2019-05-30T00:21:36.614Z,0.00
2019-05-30T00:22:36.587Z,0.00
2019-05-30T00:23:36.608Z,0.00
2019-05-30T00:24:36.567Z,0.00
2019-05-30T00:25:36.560Z,0.00
2019-05-30T00:26:36.548Z,0.00
2019-05-30T00:27:36.537Z,0.00
2019-05-30T00:28:36.535Z,0.00
2019-05-30T00:29:36.523Z,0.00
2019-05-30T00:30:36.522Z,0.00
2019-05-30T00:31:36.503Z,0.00
2019-05-30T00:32:36.495Z,0.00
2019-05-30T00:33:36.485Z,0.00
2019-05-30T00:34:36.463Z,0.00
2019-05-30T00:35:36.484Z,0.00
2019-05-30T00:36:36.444Z,0.00
2019-05-30T00:37:36.442Z,0.00
2019-05-30T00:38:36.431Z,0.00
2019-05-30T00:39:36.412Z,0.00
2019-05-30T00:40:36.400Z,0.00
2019-05-30T00:41:36.391Z,0.00
2019-05-30T00:42:36.389Z,0.00
2019-05-30T00:43:36.360Z,0.00
2019-05-30T00:44:36.350Z,0.00
2019-05-30T00:45:36.339Z,0.00
2019-05-30T00:46:36.329Z,0.00
2019-05-30T00:47:36.328Z,0.00
2019-05-30T00:48:36.318Z,0.00
2019-05-30T00:49:36.308Z,0.00
2019-05-30T00:50:36.304Z,0.00
2019-05-30T00:51:36.277Z,0.00
2019-05-30T00:52:36.283Z,0.00
2019-05-30T00:53:36.255Z,0.00
2019-05-30T00:54:36.247Z,0.00
2019-05-30T00:55:36.234Z,0.00
2019-05-30T00:56:36.224Z,0.00
2019-05-30T00:57:36.237Z,0.00
2019-05-30T00:58:36.205Z,0.00
2019-05-30T00:59:36.195Z,0.00
2019-05-30T01:00:43.652Z,0.00
2019-05-30T01:01:37.172Z,0.00
2019-05-30T01:02:36.175Z,0.00
2019-05-30T01:03:36.152Z,0.00
2019-05-30T01:04:36.133Z,0.00
2019-05-30T01:05:36.132Z,0.00
2019-05-30T01:06:36.111Z,0.00
2019-05-30T01:07:36.114Z,0.00
2019-05-30T01:08:36.094Z,0.00
2019-05-30T01:09:36.082Z,0.00
2019-05-30T01:10:36.069Z,0.00
2019-05-30T01:11:36.069Z,0.00
2019-05-30T01:12:36.057Z,0.00
2019-05-30T01:13:36.052Z,0.00
2019-05-30T01:14:36.039Z,0.00
2019-05-30T01:15:36.020Z,0.00
2019-05-30T01:16:36.013Z,0.00
2019-05-30T01:17:36.008Z,0.00
2019-05-30T01:18:35.989Z,0.00
2019-05-30T01:19:36.001Z,0.00
2019-05-30T01:20:35.965Z,0.00
2019-05-30T01:21:35.955Z,0.00
2019-05-30T01:22:35.956Z,0.00
2019-05-30T01:23:35.951Z,0.00
2019-05-30T01:24:35.928Z,0.00
2019-05-30T01:25:35.933Z,0.00
2019-05-30T01:26:35.894Z,0.00
2019-05-30T01:27:35.895Z,0.00
2019-05-30T01:28:35.873Z,0.00
2019-05-30T01:29:35.883Z,0.00
2019-05-30T01:30:35.871Z,0.00
2019-05-30T01:31:35.853Z,0.00
2019-05-30T01:32:35.841Z,0.00
2019-05-30T01:33:35.821Z,0.00
2019-05-30T01:34:35.814Z,0.00
2019-05-30T01:35:35.820Z,0.00
2019-05-30T01:36:35.800Z,0.00
2019-05-30T01:37:35.817Z,0.00
2019-05-30T01:38:35.777Z,0.00
2019-05-30T01:39:35.761Z,0.00
2019-05-30T01:40:35.747Z,0.00
2019-05-30T01:41:35.738Z,0.00
2019-05-30T01:42:35.739Z,0.00
2019-05-30T01:43:35.730Z,0.00
2019-05-30T01:44:35.717Z,0.00
2019-05-30T01:45:35.705Z,0.00
2019-05-30T01:46:35.689Z,0.00
2019-05-30T01:47:35.685Z,0.00
2019-05-30T01:48:35.667Z,0.00
2019-05-30T01:49:35.645Z,0.00
2019-05-30T01:50:35.666Z,0.00
2019-05-30T01:51:35.634Z,0.00
2019-05-30T01:52:35.636Z,0.00
2019-05-30T01:53:35.614Z,0.00
2019-05-30T01:54:35.604Z,0.00
2019-05-30T01:55:35.612Z,0.00
2019-05-30T01:56:35.582Z,0.00
2019-05-30T01:57:35.572Z,0.00
2019-05-30T01:58:35.559Z,0.00
2019-05-30T01:59:35.553Z,0.00
2019-05-30T02:00:35.570Z,0.00
2019-05-30T02:01:35.556Z,0.00
2019-05-30T02:02:35.523Z,0.00
2019-05-30T02:03:35.521Z,0.00
2019-05-30T02:04:35.490Z,0.00
2019-05-30T02:05:35.478Z,0.00
2019-05-30T02:06:38.016Z,0.00
2019-05-30T02:07:35.461Z,0.00
2019-05-30T02:08:35.455Z,0.00
2019-05-30T02:09:35.439Z,0.00
2019-05-30T02:10:35.443Z,0.00
2019-05-30T02:11:35.436Z,0.00
2019-05-30T02:12:35.408Z,0.00
2019-05-30T02:13:35.440Z,0.00
2019-05-30T02:14:35.418Z,0.00
2019-05-30T02:15:35.385Z,0.00
2019-05-30T02:16:35.381Z,0.00
2019-05-30T02:17:35.355Z,0.00
2019-05-30T02:18:35.356Z,0.00
2019-05-30T02:19:35.335Z,0.00
2019-05-30T02:20:35.345Z,0.00
2019-05-30T02:21:35.322Z,0.00
2019-05-30T02:22:35.302Z,0.00
2019-05-30T02:23:35.305Z,0.00
2019-05-30T02:24:35.297Z,0.00
2019-05-30T02:25:35.276Z,0.00
2019-05-30T02:26:35.269Z,0.00
2019-05-30T02:27:35.250Z,0.00
2019-05-30T02:28:35.241Z,0.00
2019-05-30T02:29:35.232Z,0.00
2019-05-30T02:30:35.220Z,0.00
2019-05-30T02:31:39.429Z,0.00
2019-05-30T02:32:35.203Z,0.00
2019-05-30T02:33:35.190Z,0.00
2019-05-30T02:34:35.189Z,0.00
2019-05-30T02:35:35.164Z,0.00
2019-05-30T02:36:35.147Z,0.00
2019-05-30T02:37:35.148Z,0.00
2019-05-30T02:38:35.129Z,0.00
2019-05-30T02:39:35.161Z,0.00
2019-05-30T02:40:35.117Z,0.00
2019-05-30T02:41:35.109Z,0.00
2019-05-30T02:42:35.098Z,0.00
2019-05-30T02:43:35.087Z,0.00
2019-05-30T02:44:35.085Z,0.00
2019-05-30T02:45:35.058Z,0.00
2019-05-30T02:46:35.046Z,0.00
2019-05-30T02:47:35.032Z,0.00
2019-05-30T02:48:35.026Z,0.00
2019-05-30T02:49:35.022Z,0.00
2019-05-30T02:50:35.001Z,0.00
2019-05-30T02:51:34.992Z,0.00
2019-05-30T02:52:34.980Z,0.00
2019-05-30T02:53:34.981Z,0.00
2019-05-30T02:54:34.961Z,0.00
2019-05-30T02:55:34.949Z,0.00
2019-05-30T02:56:34.950Z,0.00
2019-05-30T02:57:34.932Z,0.00
2019-05-30T02:58:34.929Z,0.00
2019-05-30T02:59:34.910Z,0.00
2019-05-30T03:00:34.909Z,0.00
2019-05-30T03:01:34.901Z,0.00
2019-05-30T03:02:34.878Z,0.00
2019-05-30T03:03:34.867Z,0.00
2019-05-30T03:04:34.860Z,0.00
2019-05-30T03:05:34.883Z,0.00
2019-05-30T03:06:34.863Z,0.00
2019-05-30T03:07:34.825Z,0.00
2019-05-30T03:08:34.809Z,0.00
2019-05-30T03:09:34.815Z,0.00
2019-05-30T03:10:34.815Z,0.00
2019-05-30T03:11:34.817Z,0.00
2019-05-30T03:12:34.773Z,0.00
2019-05-30T03:13:34.769Z,0.00
2019-05-30T03:14:34.773Z,0.00
2019-05-30T03:15:34.739Z,0.00
2019-05-30T03:16:34.743Z,0.00
2019-05-30T03:17:34.745Z,0.00
2019-05-30T03:18:34.701Z,0.00
2019-05-30T03:19:34.714Z,0.00
2019-05-30T03:20:34.685Z,0.00
2019-05-30T03:21:34.696Z,0.00
2019-05-30T03:22:34.660Z,0.00
2019-05-30T03:23:34.668Z,0.00
2019-05-30T03:24:34.658Z,0.00
2019-05-30T03:25:34.654Z,0.00
2019-05-30T03:26:34.627Z,0.00
2019-05-30T03:27:34.607Z,0.00
2019-05-30T03:28:34.598Z,0.00
2019-05-30T03:29:34.598Z,0.00
2019-05-30T03:30:34.578Z,0.00
2019-05-30T03:31:34.588Z,0.00
2019-05-30T03:33:40.320Z,0.00
2019-05-30T03:34:35.577Z,0.00
2019-05-30T03:35:41.796Z,0.00
2019-05-30T03:36:35.526Z,0.00
2019-05-30T03:37:34.500Z,0.00
2019-05-30T03:38:34.492Z,0.00
2019-05-30T03:39:34.495Z,0.00
2019-05-30T03:40:34.480Z,0.00
2019-05-30T03:41:34.454Z,0.00
2019-05-30T03:42:34.463Z,0.00
2019-05-30T03:43:34.442Z,0.00
2019-05-30T03:44:34.423Z,0.00
2019-05-30T03:45:34.413Z,0.00
2019-05-30T03:46:34.425Z,0.00
2019-05-30T03:47:34.397Z,0.00
2019-05-30T03:48:34.378Z,0.00
2019-05-30T03:49:34.393Z,0.00
2019-05-30T03:50:34.380Z,0.00
2019-05-30T03:51:34.351Z,0.00
2019-05-30T03:52:34.339Z,0.00
2019-05-30T03:53:34.338Z,0.00
2019-05-30T03:54:34.336Z,0.00
2019-05-30T03:55:34.308Z,0.00
2019-05-30T03:56:34.316Z,0.00
2019-05-30T03:57:34.281Z,0.00
2019-05-30T03:58:34.275Z,0.00
2019-05-30T03:59:34.268Z,0.00
2019-05-30T04:00:34.257Z,0.00
2019-05-30T04:01:34.237Z,0.00
2019-05-30T04:02:54.663Z,0.00
2019-05-30T04:03:35.214Z,0.00
2019-05-30T04:04:34.227Z,0.00
2019-05-30T04:05:34.216Z,0.00
2019-05-30T04:06:34.198Z,0.00
2019-05-30T04:07:34.182Z,0.00
2019-05-30T04:08:34.177Z,0.00
2019-05-30T04:09:34.187Z,5.62
2019-05-30T04:10:34.167Z,5.62
2019-05-30T04:11:34.137Z,5.62
2019-05-30T04:12:34.176Z,5.62
2019-05-30T04:13:34.114Z,5.62
2019-05-30T04:14:34.098Z,5.62
2019-05-30T04:15:34.091Z,5.62
2019-05-30T04:16:34.113Z,5.62
2019-05-30T04:17:34.077Z,5.62
2019-05-30T04:18:34.060Z,5.62
2019-05-30T04:19:34.058Z,5.62
2019-05-30T04:20:34.059Z,5.62
2019-05-30T04:21:34.026Z,11.25
2019-05-30T04:22:34.007Z,5.62
2019-05-30T04:23:34.037Z,11.25
2019-05-30T04:24:33.988Z,5.62
2019-05-30T04:25:34.017Z,11.25
2019-05-30T04:26:33.967Z,11.25
2019-05-30T04:27:33.967Z,5.62
2019-05-30T04:28:33.951Z,5.62
2019-05-30T04:29:33.941Z,5.62
2019-05-30T04:30:33.933Z,5.62
2019-05-30T04:31:33.930Z,5.62
2019-05-30T04:32:33.939Z,5.62
2019-05-30T04:33:34.069Z,5.62
2019-05-30T04:34:33.883Z,5.62
2019-05-30T04:35:33.874Z,5.62
2019-05-30T04:36:33.863Z,11.25
2019-05-30T04:37:33.852Z,11.25
2019-05-30T04:38:33.861Z,11.25
2019-05-30T04:39:33.836Z,11.25
2019-05-30T04:40:33.824Z,11.25
2019-05-30T04:41:33.820Z,11.25
2019-05-30T04:42:33.799Z,11.25
2019-05-30T04:43:33.793Z,11.25
2019-05-30T04:44:33.801Z,11.25
2019-05-30T04:45:33.768Z,11.25
2019-05-30T04:46:33.769Z,11.25
2019-05-30T04:47:33.742Z,16.88
2019-05-30T04:48:33.737Z,16.88
2019-05-30T04:49:33.719Z,16.88
2019-05-30T04:50:33.717Z,22.50
2019-05-30T04:51:33.709Z,16.88
2019-05-30T04:52:33.707Z,22.50
2019-05-30T04:53:33.696Z,16.88
2019-05-30T04:54:33.668Z,16.88
2019-05-30T04:55:33.663Z,16.88
2019-05-30T04:56:33.676Z,11.25
2019-05-30T04:57:33.636Z,11.25
2019-05-30T04:58:33.644Z,16.88
2019-05-30T04:59:33.615Z,16.88
2019-05-30T05:00:33.611Z,16.88
2019-05-30T05:01:33.634Z,22.50
2019-05-30T05:02:33.584Z,22.50
2019-05-30T05:03:45.334Z,16.88
2019-05-30T05:04:34.561Z,16.88
2019-05-30T05:05:33.551Z,22.50
2019-05-30T05:06:33.543Z,22.50
2019-05-30T05:07:33.530Z,28.12
2019-05-30T05:08:33.541Z,28.12
2019-05-30T05:09:33.510Z,28.12
2019-05-30T05:10:33.490Z,28.12
2019-05-30T05:11:33.516Z,33.75
2019-05-30T05:12:33.473Z,33.75
2019-05-30T05:13:33.458Z,39.38
2019-05-30T05:14:33.450Z,39.38
2019-05-30T05:15:33.437Z,39.38
2019-05-30T05:16:36.031Z,39.38
2019-05-30T05:17:33.417Z,39.38
2019-05-30T05:18:33.428Z,45.00
2019-05-30T05:19:33.397Z,45.00
2019-05-30T05:20:36.017Z,45.00
2019-05-30T05:21:33.384Z,45.00
2019-05-30T05:22:33.366Z,50.62
2019-05-30T05:23:33.374Z,45.00
2019-05-30T05:24:33.344Z,45.00
2019-05-30T05:25:33.343Z,39.38
2019-05-30T05:26:33.363Z,39.38
2019-05-30T05:27:33.303Z,39.38
2019-05-30T05:28:33.296Z,33.75
2019-05-30T05:29:33.292Z,33.75
2019-05-30T05:30:33.272Z,33.75
2019-05-30T05:31:33.274Z,39.38
2019-05-30T05:32:33.271Z,45.00
2019-05-30T05:33:33.240Z,39.38
2019-05-30T05:34:33.250Z,45.00
2019-05-30T05:35:33.243Z,45.00
2019-05-30T05:36:33.220Z,39.38
2019-05-30T05:37:33.201Z,45.00
2019-05-30T05:38:33.190Z,45.00
2019-05-30T05:39:33.179Z,39.38
2019-05-30T05:40:33.168Z,45.00
2019-05-30T05:41:33.198Z,45.00
2019-05-30T05:42:33.147Z,45.00
2019-05-30T05:43:33.136Z,45.00
2019-05-30T05:44:33.127Z,50.62
2019-05-30T05:45:33.114Z,50.62
2019-05-30T05:46:33.116Z,39.38
2019-05-30T05:47:33.126Z,50.62
2019-05-30T05:48:33.093Z,45.00
2019-05-30T05:49:33.075Z,56.25
2019-05-30T05:50:33.067Z,45.00
2019-05-30T05:51:33.064Z,45.00
2019-05-30T05:52:33.034Z,45.00
2019-05-30T05:53:33.034Z,50.62
2019-05-30T05:54:33.022Z,45.00
2019-05-30T05:55:33.042Z,39.38
2019-05-30T05:56:33.002Z,33.75
2019-05-30T05:57:32.983Z,33.75
2019-05-30T05:58:32.973Z,39.38
2019-05-30T05:59:32.992Z,33.75
2019-05-30T06:00:32.976Z,39.38
2019-05-30T06:01:32.963Z,39.38
2019-05-30T06:02:32.938Z,39.38
2019-05-30T06:03:32.921Z,39.38
2019-05-30T06:04:32.943Z,50.62
2019-05-30T06:05:32.904Z,50.62
2019-05-30T06:06:32.890Z,56.25
2019-05-30T06:07:32.889Z,61.88
2019-05-30T06:08:32.872Z,50.62
2019-05-30T06:09:32.934Z,45.00
2019-05-30T06:10:32.867Z,50.62
2019-05-30T06:11:32.855Z,45.00
2019-05-30T06:12:32.828Z,45.00
2019-05-30T06:13:32.817Z,45.00
2019-05-30T06:14:32.817Z,39.38
2019-05-30T06:15:32.806Z,39.38
2019-05-30T06:16:32.806Z,33.75
2019-05-30T06:18:41.701Z,28.12
2019-05-30T06:19:46.297Z,28.12
2019-05-30T06:20:42.710Z,33.75
2019-05-30T06:21:53.647Z,33.75
2019-05-30T06:22:42.648Z,33.75
2019-05-30T06:23:45.419Z,33.75
2019-05-30T06:24:41.653Z,33.75
2019-05-30T06:25:41.608Z,45.00
2019-05-30T06:26:41.613Z,39.38
2019-05-30T06:27:41.601Z,45.00
2019-05-30T06:28:41.596Z,45.00
2019-05-30T06:29:41.606Z,50.62
2019-05-30T06:30:41.558Z,50.62
2019-05-30T06:31:41.545Z,50.62
2019-05-30T06:32:41.550Z,56.25
2019-05-30T06:33:41.525Z,56.25
2019-05-30T06:34:41.535Z,56.25
2019-05-30T06:35:41.513Z,56.25
2019-05-30T06:36:41.503Z,56.25
2019-05-30T06:37:41.495Z,50.62
2019-05-30T06:38:41.473Z,56.25
2019-05-30T06:39:41.475Z,56.25
2019-05-30T06:40:41.454Z,56.25
2019-05-30T06:41:41.444Z,50.62
2019-05-30T06:42:41.467Z,45.00
2019-05-30T06:43:41.423Z,45.00
2019-05-30T06:44:41.433Z,50.62
2019-05-30T06:45:41.419Z,56.25
2019-05-30T06:46:41.408Z,50.62
2019-05-30T06:47:41.390Z,50.62
2019-05-30T06:48:41.371Z,56.25
2019-05-30T06:49:41.359Z,56.25
2019-05-30T06:50:41.363Z,67.50
2019-05-30T06:51:41.329Z,56.25
2019-05-30T06:52:41.328Z,50.62
2019-05-30T06:53:41.320Z,56.25
2019-05-30T06:54:41.307Z,56.25
2019-05-30T06:55:41.298Z,50.62
2019-05-30T06:56:44.576Z,56.25
2019-05-30T06:57:41.297Z,56.25
2019-05-30T06:58:48.422Z,56.25
2019-05-30T06:59:42.271Z,61.88
2019-05-30T07:00:41.266Z,61.88
2019-05-30T07:01:41.236Z,73.12
2019-05-30T07:02:41.264Z,78.75
2019-05-30T07:03:41.348Z,73.12
2019-05-30T07:04:51.726Z,67.50
2019-05-30T07:05:42.756Z,67.50
2019-05-30T07:06:41.683Z,67.50
2019-05-30T07:07:41.315Z,56.25
2019-05-30T07:08:41.152Z,56.25
2019-05-30T07:09:41.162Z,61.88
2019-05-30T07:10:41.142Z,56.25
2019-05-30T07:11:41.142Z,78.75
2019-05-30T07:12:41.121Z,84.38
2019-05-30T07:13:41.114Z,101.25
2019-05-30T07:14:41.100Z,84.38
2019-05-30T07:15:41.093Z,90.00
2019-05-30T07:16:41.069Z,106.88
2019-05-30T07:17:41.075Z,112.50
2019-05-30T07:18:41.049Z,78.75
2019-05-30T07:19:41.038Z,73.12
2019-05-30T07:20:41.050Z,61.88
2019-05-30T07:21:41.028Z,67.50
2019-05-30T07:22:41.018Z,67.50
2019-05-30T07:23:40.988Z,73.12
2019-05-30T07:24:40.986Z,73.12
2019-05-30T07:25:40.980Z,84.38
2019-05-30T07:26:40.975Z,90.00
2019-05-30T07:27:40.966Z,84.38
2019-05-30T07:28:40.963Z,90.00
2019-05-30T07:29:40.928Z,101.25
2019-05-30T07:30:40.935Z,101.25
2019-05-30T07:31:40.915Z,118.12
2019-05-30T07:32:40.904Z,101.25
2019-05-30T07:33:40.892Z,106.88
2019-05-30T07:34:40.879Z,106.88
2019-05-30T07:35:40.897Z,101.25
2019-05-30T07:36:40.855Z,90.00
2019-05-30T07:37:40.843Z,84.38
2019-05-30T07:38:40.846Z,101.25
2019-05-30T07:39:40.829Z,112.50
2019-05-30T07:40:40.820Z,106.88
2019-05-30T07:41:40.810Z,112.50
2019-05-30T07:42:40.800Z,112.50
2019-05-30T07:43:40.780Z,106.88
2019-05-30T07:44:40.769Z,112.50
2019-05-30T07:45:40.769Z,106.88
2019-05-30T07:46:40.759Z,101.25
2019-05-30T07:47:40.750Z,129.38
2019-05-30T07:48:40.728Z,129.38
2019-05-30T07:49:40.718Z,118.12
2019-05-30T07:50:40.720Z,123.75
2019-05-30T07:51:40.696Z,106.88
2019-05-30T07:52:40.710Z,90.00
2019-05-30T07:53:40.669Z,78.75
2019-05-30T07:54:40.657Z,90.00
2019-05-30T07:55:40.675Z,90.00
2019-05-30T07:56:40.645Z,90.00
2019-05-30T07:57:41.509Z,106.88
2019-05-30T07:58:40.624Z,101.25
2019-05-30T07:59:40.614Z,101.25
2019-05-30T08:00:40.613Z,101.25
2019-05-30T08:01:40.584Z,112.50
2019-05-30T08:02:40.575Z,95.62
2019-05-30T08:03:40.562Z,95.62
2019-05-30T08:04:40.573Z,95.62
2019-05-30T08:05:40.573Z,84.38
2019-05-30T08:06:40.541Z,90.00
2019-05-30T08:07:40.521Z,95.62
2019-05-30T08:08:40.551Z,101.25
2019-05-30T08:09:40.512Z,106.88
2019-05-30T08:10:40.520Z,95.62
2019-05-30T08:11:40.480Z,112.50
2019-05-30T08:12:40.469Z,106.88
2019-05-30T08:13:40.468Z,106.88
2019-05-30T08:14:40.448Z,112.50
2019-05-30T08:15:43.940Z,123.75
2019-05-30T08:16:40.427Z,129.38
2019-05-30T08:17:44.141Z,123.75
2019-05-30T08:18:40.409Z,135.00
2019-05-30T08:19:40.397Z,151.88
2019-05-30T08:20:40.458Z,174.38
2019-05-30T08:21:40.368Z,180.00
2019-05-30T08:22:40.376Z,174.38
2019-05-30T08:23:40.358Z,230.62
2019-05-30T08:24:40.336Z,208.12
2019-05-30T08:25:40.360Z,230.62
2019-05-30T08:26:40.338Z,202.50
2019-05-30T08:27:40.314Z,208.12
2019-05-30T08:28:42.597Z,230.62
2019-05-30T08:29:40.283Z,230.62
2019-05-30T08:30:40.284Z,236.25
2019-05-30T08:31:40.263Z,213.75
2019-05-30T08:32:40.275Z,191.25
2019-05-30T08:33:40.242Z,230.62
2019-05-30T08:34:40.232Z,236.25
2019-05-30T08:35:49.169Z,247.50
2019-05-30T08:36:41.222Z,230.62
2019-05-30T08:37:40.211Z,258.75
2019-05-30T08:38:40.191Z,258.75
2019-05-30T08:39:40.178Z,281.25
2019-05-30T08:40:40.168Z,264.38
2019-05-30T08:41:40.170Z,315.00
2019-05-30T08:42:40.414Z,281.25
2019-05-30T08:43:40.139Z,286.88
2019-05-30T08:44:40.213Z,236.25
2019-05-30T08:45:40.120Z,225.00
2019-05-30T08:46:40.099Z,219.38
2019-05-30T08:47:40.744Z,236.25
2019-05-30T08:48:40.383Z,253.12
2019-05-30T08:49:40.364Z,303.75
2019-05-30T08:50:43.152Z,360.00
2019-05-30T08:51:40.502Z,253.12
2019-05-30T08:52:40.949Z,264.38
2019-05-30T08:53:40.665Z,230.62
2019-05-30T08:54:40.569Z,236.25
2019-05-30T08:55:40.641Z,225.00
2019-05-30T08:56:40.679Z,202.50
2019-05-30T08:57:40.967Z,196.88
2019-05-30T08:58:40.917Z,236.25
2019-05-30T08:59:40.766Z,230.62
2019-05-30T09:00:39.984Z,196.88
2019-05-30T09:01:40.460Z,196.88
2019-05-30T09:02:40.915Z,241.88
2019-05-30T09:03:40.202Z,202.50
2019-05-30T09:04:39.912Z,241.88
2019-05-30T09:05:55.526Z,196.88
2019-05-30T09:06:41.810Z,196.88
2019-05-30T09:07:40.217Z,174.38
2019-05-30T09:08:40.091Z,202.50
2019-05-30T09:09:40.194Z,286.88
2019-05-30T09:10:40.813Z,191.25
2019-05-30T09:11:40.584Z,146.25
2019-05-30T09:12:42.497Z,140.62
2019-05-30T09:13:40.396Z,174.38
2019-05-30T09:14:41.179Z,196.88
2019-05-30T09:15:40.940Z,208.12
2019-05-30T09:16:39.788Z,168.75
2019-05-30T09:17:40.642Z,225.00
2019-05-30T09:18:40.325Z,230.62
2019-05-30T09:19:40.241Z,191.25
2019-05-30T09:20:40.259Z,168.75
2019-05-30T09:21:40.317Z,163.12
2019-05-30T09:22:39.882Z,208.12
2019-05-30T09:23:41.024Z,270.00
2019-05-30T09:24:40.507Z,292.50
2019-05-30T09:25:40.003Z,264.38
2019-05-30T09:26:44.189Z,225.00
2019-05-30T09:27:41.435Z,393.75
2019-05-30T09:28:40.682Z,331.88
2019-05-30T09:29:41.076Z,253.12
2019-05-30T09:30:41.128Z,196.88
2019-05-30T09:31:41.027Z,191.25
2019-05-30T09:32:41.156Z,236.25
2019-05-30T09:33:40.875Z,500.62
2019-05-30T09:34:40.271Z,309.38
2019-05-30T09:35:40.314Z,230.62
2019-05-30T09:36:40.906Z,292.50
2019-05-30T09:37:40.554Z,247.50
2019-05-30T09:38:40.562Z,208.12
2019-05-30T09:39:40.374Z,264.38
2019-05-30T09:40:40.852Z,236.25
2019-05-30T09:41:40.973Z,236.25
2019-05-30T09:42:40.825Z,241.88
2019-05-30T09:43:39.854Z,241.88
2019-05-30T09:44:40.473Z,191.25
2019-05-30T09:45:39.610Z,213.75
2019-05-30T09:46:40.830Z,320.62
2019-05-30T09:47:41.346Z,309.38
2019-05-30T09:48:40.194Z,348.75
2019-05-30T09:49:40.142Z,371.25
2019-05-30T09:50:42.019Z,270.00
2019-05-30T09:51:40.581Z,236.25
2019-05-30T09:52:41.564Z,270.00
2019-05-30T09:53:39.397Z,365.62
2019-05-30T09:54:39.380Z,365.62
2019-05-30T09:55:39.382Z,309.38
2019-05-30T09:56:39.347Z,320.62
2019-05-30T09:57:39.341Z,371.25
2019-05-30T09:58:39.326Z,461.25
2019-05-30T09:59:39.314Z,466.88
2019-05-30T10:00:39.320Z,433.12
2019-05-30T10:01:39.303Z,331.88
2019-05-30T10:02:39.289Z,326.25
2019-05-30T10:03:39.282Z,438.75
2019-05-30T10:04:39.252Z,585.00
2019-05-30T10:05:39.265Z,562.50
2019-05-30T10:06:39.241Z,393.75
2019-05-30T10:07:39.253Z,303.75
2019-05-30T10:08:39.211Z,286.88
2019-05-30T10:09:39.201Z,286.88
2019-05-30T10:10:39.203Z,253.12
2019-05-30T10:11:39.181Z,343.12
2019-05-30T10:12:39.170Z,388.12
2019-05-30T10:13:39.180Z,427.50
2019-05-30T10:14:39.152Z,511.88
2019-05-30T10:15:39.163Z,405.00
2019-05-30T10:16:39.130Z,354.38
2019-05-30T10:17:39.126Z,421.88
2019-05-30T10:18:39.128Z,478.12
2019-05-30T10:19:39.096Z,438.75
2019-05-30T10:20:39.092Z,421.88
2019-05-30T10:21:39.077Z,399.38
2019-05-30T10:22:39.076Z,354.38
2019-05-30T10:23:39.058Z,315.00
2019-05-30T10:24:39.049Z,354.38
2019-05-30T10:25:39.035Z,320.62
2019-05-30T10:26:39.023Z,286.88
2019-05-30T10:27:39.028Z,292.50
2019-05-30T10:28:39.068Z,309.38
2019-05-30T10:29:38.985Z,438.75
2019-05-30T10:30:38.974Z,309.38
2019-05-30T10:31:38.966Z,326.25
2019-05-30T10:32:38.963Z,264.38
2019-05-30T10:33:38.952Z,253.12
2019-05-30T10:34:38.947Z,247.50
2019-05-30T10:35:38.923Z,258.75
2019-05-30T10:36:44.170Z,253.12
2019-05-30T10:37:39.912Z,241.88
2019-05-30T10:38:38.891Z,241.88
2019-05-30T10:39:38.892Z,253.12
2019-05-30T10:40:38.872Z,303.75
2019-05-30T10:41:38.867Z,281.25
2019-05-30T10:42:38.888Z,264.38
2019-05-30T10:43:38.840Z,258.75
2019-05-30T10:44:38.830Z,253.12
2019-05-30T10:45:38.840Z,253.12
2019-05-30T10:46:38.958Z,247.50
2019-05-30T10:47:38.817Z,241.88
2019-05-30T10:48:38.781Z,264.38
2019-05-30T10:49:38.768Z,326.25
2019-05-30T10:50:38.758Z,286.88
2019-05-30T10:51:38.765Z,298.12
2019-05-30T10:52:38.756Z,281.25
2019-05-30T10:53:38.736Z,253.12
2019-05-30T10:54:38.728Z,270.00
2019-05-30T10:55:38.715Z,292.50
2019-05-30T10:56:38.715Z,253.12
2019-05-30T10:57:38.688Z,264.38
2019-05-30T10:58:38.705Z,326.25
2019-05-30T10:59:38.686Z,309.38
2019-05-30T11:00:38.655Z,270.00
2019-05-30T11:01:38.659Z,270.00
2019-05-30T11:02:38.637Z,292.50
2019-05-30T11:03:38.624Z,286.88
2019-05-30T11:04:38.619Z,320.62
2019-05-30T11:05:38.635Z,303.75
2019-05-30T11:06:38.597Z,309.38
2019-05-30T11:07:52.809Z,337.50
2019-05-30T11:08:39.601Z,365.62
2019-05-30T11:09:38.561Z,337.50
2019-05-30T11:10:38.571Z,309.38
2019-05-30T11:11:38.540Z,303.75
2019-05-30T11:12:39.171Z,320.62
2019-05-30T11:13:38.515Z,292.50
2019-05-30T11:14:38.510Z,264.38
2019-05-30T11:15:38.514Z,275.62
2019-05-30T11:16:38.489Z,292.50
2019-05-30T11:17:38.473Z,258.75
2019-05-30T11:18:38.468Z,264.38
2019-05-30T11:19:38.493Z,281.25
2019-05-30T11:20:38.449Z,286.88
2019-05-30T11:21:38.448Z,281.25
2019-05-30T11:22:38.439Z,303.75
2019-05-30T11:23:38.408Z,320.62
2019-05-30T11:24:38.409Z,393.75
2019-05-30T11:25:38.389Z,365.62
2019-05-30T11:26:38.388Z,410.62
2019-05-30T11:27:38.403Z,393.75
2019-05-30T11:28:38.367Z,421.88
2019-05-30T11:29:38.596Z,478.12
2019-05-30T11:30:38.326Z,489.38
2019-05-30T11:31:38.336Z,450.00
2019-05-30T11:32:38.316Z,376.88
2019-05-30T11:33:38.306Z,393.75
2019-05-30T11:34:38.307Z,376.88
2019-05-30T11:35:38.319Z,433.12
2019-05-30T11:36:38.285Z,365.62
2019-05-30T11:37:38.273Z,315.00
2019-05-30T11:38:38.255Z,320.62
2019-05-30T11:39:38.233Z,365.62
2019-05-30T11:40:38.233Z,382.50
2019-05-30T11:41:38.224Z,393.75
2019-05-30T11:42:38.232Z,461.25
2019-05-30T11:43:38.192Z,444.38
2019-05-30T11:44:38.202Z,483.75
2019-05-30T11:45:38.198Z,382.50
2019-05-30T11:46:38.594Z,416.25
2019-05-30T11:47:38.192Z,438.75
2019-05-30T11:48:38.192Z,534.38
2019-05-30T11:49:38.133Z,450.00
2019-05-30T11:50:38.123Z,416.25
2019-05-30T11:51:38.124Z,421.88
2019-05-30T11:52:38.099Z,399.38
2019-05-30T11:53:38.109Z,399.38
2019-05-30T11:54:38.071Z,416.25
2019-05-30T11:55:38.078Z,438.75
2019-05-30T11:56:38.050Z,495.00
2019-05-30T11:57:38.058Z,523.12
2019-05-30T11:58:38.045Z,483.75
2019-05-30T11:59:38.058Z,511.88
2019-05-30T12:00:38.017Z,483.75
2019-05-30T12:01:38.025Z,472.50
2019-05-30T12:02:38.025Z,534.38
2019-05-30T12:03:37.976Z,523.12
2019-05-30T12:04:37.965Z,534.38
2019-05-30T12:05:37.968Z,495.00
2019-05-30T12:06:37.955Z,495.00
2019-05-30T12:07:37.939Z,461.25
2019-05-30T12:08:37.915Z,427.50
2019-05-30T12:09:37.945Z,478.12
2019-05-30T12:10:37.924Z,495.00
2019-05-30T12:11:37.893Z,523.12
2019-05-30T12:12:37.884Z,506.25
2019-05-30T12:13:37.893Z,466.88
2019-05-30T12:14:37.853Z,461.25
2019-05-30T12:15:37.857Z,489.38
2019-05-30T12:16:37.931Z,466.88
2019-05-30T12:17:37.831Z,466.88
2019-05-30T12:18:37.829Z,388.12
2019-05-30T12:19:37.811Z,466.88
2019-05-30T12:20:37.803Z,466.88
2019-05-30T12:21:37.788Z,478.12
2019-05-30T12:22:37.800Z,489.38
2019-05-30T12:23:37.763Z,455.62
2019-05-30T12:24:37.750Z,478.12
2019-05-30T12:25:37.749Z,478.12
2019-05-30T12:26:37.739Z,461.25
2019-05-30T12:27:37.719Z,500.62
2019-05-30T12:28:37.710Z,500.62
2019-05-30T12:29:37.708Z,450.00
2019-05-30T12:30:37.687Z,427.50
2019-05-30T12:31:37.688Z,472.50
2019-05-30T12:32:37.671Z,511.88
2019-05-30T12:34:46.572Z,466.88
2019-05-30T12:35:46.548Z,416.25
2019-05-30T12:36:46.542Z,393.75
2019-05-30T12:37:54.710Z,466.88
2019-05-30T12:38:47.508Z,438.75
2019-05-30T12:39:46.517Z,433.12
2019-05-30T12:40:46.499Z,388.12
2019-05-30T12:41:46.480Z,393.75
2019-05-30T12:42:46.476Z,483.75
2019-05-30T12:43:46.468Z,433.12
2019-05-30T12:44:46.456Z,450.00
2019-05-30T12:45:46.446Z,461.25
2019-05-30T12:46:46.437Z,410.62
2019-05-30T12:47:46.415Z,416.25
2019-05-30T12:48:46.418Z,450.00
2019-05-30T12:49:46.408Z,421.88
2019-05-30T12:50:46.385Z,455.62
2019-05-30T12:51:46.377Z,405.00
2019-05-30T12:52:46.373Z,438.75
2019-05-30T12:53:46.367Z,427.50
2019-05-30T12:54:46.344Z,438.75